Time;durP1;ratioP1;P1;durP2;ratioP2;P2;SDS_P1;SDS_P2;PMS_P1;PMS_P2;Temp;Humidity;BMP_temperature;BMP_pressure;BME280_temperature;BME280_humidity;BME280_pressure;Samples;Min_cycle;Max_cycle;Signal;HPM_P1;HPM_P2
2021/01/10 00:00:01;;;;;;;;;;;3.30;81.80;;;;;;5094350;27;19929;-75
2021/01/10 00:02:27;;;;;;;;;;;3.30;81.80;;;;;;5081447;28;20019;-75
2021/01/10 00:04:53;;;;;;;;;;;3.30;81.90;;;;;;5093504;28;19912;-75
2021/01/10 00:07:23;;;;;;;;;;;3.30;81.90;;;;;;5068098;28;19912;-75
2021/01/10 00:09:49;;;;;;;;;;;3.20;81.80;;;;;;5108170;28;20297;-75
2021/01/10 00:12:18;;;;;;;;;;;3.20;81.80;;;;;;5075230;28;19917;-74
2021/01/10 00:14:43;;;;;;;;;;;3.20;81.90;;;;;;5081352;28;19912;-75
2021/01/10 00:17:09;;;;;;;;;;;3.20;81.80;;;;;;5081569;28;19916;-74
2021/01/10 00:19:35;;;;;;;;;;;3.10;81.80;;;;;;5090405;28;20301;-75
2021/01/10 00:22:00;;;;;;;;;;;3.20;81.80;;;;;;5069609;28;20010;-75
2021/01/10 00:24:26;;;;;;;;;;;3.10;81.80;;;;;;5113137;27;20284;-74
2021/01/10 00:26:51;;;;;;;;;;;3.10;81.80;;;;;;5076626;28;19928;-75
2021/01/10 00:29:17;;;;;;;;;;;3.10;81.80;;;;;;5068733;28;19923;-76
2021/01/10 00:31:43;;;;;;;;;;;3.10;81.90;;;;;;5067650;28;19924;-75
2021/01/10 00:34:08;;;;;;;;;;;3.00;81.80;;;;;;5091299;28;19916;-75
2021/01/10 00:36:34;;;;;;;;;;;3.00;81.80;;;;;;5067708;28;21215;-75
2021/01/10 00:39:00;;;;;;;;;;;3.00;81.90;;;;;;5096885;28;19924;-76
2021/01/10 00:41:26;;;;;;;;;;;3.00;81.90;;;;;;5059349;28;20456;-74
2021/01/10 00:43:52;;;;;;;;;;;3.00;81.90;;;;;;5096767;28;19920;-74
2021/01/10 00:46:17;;;;;;;;;;;2.90;81.80;;;;;;5057906;28;20335;-75
2021/01/10 00:48:43;;;;;;;;;;;2.90;81.80;;;;;;5053325;28;19967;-74
2021/01/10 00:51:12;;;;;;;;;;;2.90;81.80;;;;;;5075082;28;20365;-75
2021/01/10 00:53:39;;;;;;;;;;;2.90;81.90;;;;;;5105553;27;19908;-75
2021/01/10 00:56:05;;;;;;;;;;;2.90;81.80;;;;;;5081846;28;19966;-75
2021/01/10 00:58:31;;;;;;;;;;;2.80;81.80;;;;;;5060712;28;20003;-75
2021/01/10 01:00:57;;;;;;;;;;;2.80;81.80;;;;;;5103611;28;19932;-75
2021/01/10 01:03:23;;;;;;;;;;;2.80;81.80;;;;;;5100133;28;20388;-75
2021/01/10 01:05:49;;;;;;;;;;;2.80;81.80;;;;;;5110338;27;19916;-74
2021/01/10 01:08:14;;;;;;;;;;;2.80;81.80;;;;;;5087588;28;20303;-74
2021/01/10 01:10:46;;;;;;;;;;;2.80;81.80;;;;;;5059739;28;20027;-74
2021/01/10 01:13:12;;;;;;;;;;;2.70;81.80;;;;;;5082689;28;20276;-74
2021/01/10 01:15:37;;;;;;;;;;;2.70;81.70;;;;;;5089265;28;19919;-78
2021/01/10 01:18:03;;;;;;;;;;;2.70;81.70;;;;;;5072912;28;19923;-74
2021/01/10 01:20:28;;;;;;;;;;;2.70;81.70;;;;;;5073964;28;19943;-74
2021/01/10 01:22:54;;;;;;;;;;;2.70;81.70;;;;;;5076534;28;19995;-74
2021/01/10 01:25:20;;;;;;;;;;;2.70;81.70;;;;;;5079101;28;19923;-74
2021/01/10 01:27:45;;;;;;;;;;;2.60;81.70;;;;;;5082872;28;19912;-75
2021/01/10 01:30:11;;;;;;;;;;;2.60;81.70;;;;;;5094671;28;19971;-74
2021/01/10 01:32:37;;;;;;;;;;;2.60;81.70;;;;;;5083370;28;20365;-74
2021/01/10 01:35:03;;;;;;;;;;;2.60;81.70;;;;;;5075905;28;19913;-74
2021/01/10 01:37:28;;;;;;;;;;;2.60;81.70;;;;;;5090381;28;19916;-74
2021/01/10 01:39:54;;;;;;;;;;;2.60;81.70;;;;;;5066581;28;19985;-74
2021/01/10 01:42:20;;;;;;;;;;;2.60;81.70;;;;;;5081412;28;19931;-76
2021/01/10 01:44:45;;;;;;;;;;;2.60;81.70;;;;;;5083587;28;19919;-75
2021/01/10 01:47:17;;;;;;;;;;;2.50;81.60;;;;;;5078259;28;20353;-74
2021/01/10 01:49:43;;;;;;;;;;;2.50;81.70;;;;;;5073313;28;19970;-74
2021/01/10 01:52:08;;;;;;;;;;;2.50;81.70;;;;;;5075732;28;20311;-74
2021/01/10 01:54:35;;;;;;;;;;;2.50;81.60;;;;;;5073624;28;19979;-74
2021/01/10 01:57:00;;;;;;;;;;;2.50;81.70;;;;;;5063106;28;20356;-75
2021/01/10 01:59:26;;;;;;;;;;;2.50;81.60;;;;;;5083356;28;19972;-74
2021/01/10 02:01:52;;;;;;;;;;;2.50;81.60;;;;;;5070267;28;19947;-75
2021/01/10 02:04:17;;;;;;;;;;;2.50;81.60;;;;;;5053527;28;19966;-75
2021/01/10 02:06:58;;;;;;;;;;;2.50;81.60;;;;;;5085684;28;19912;-74
2021/01/10 02:09:24;;;;;;;;;;;2.50;81.70;;;;;;5096302;28;19923;-74
2021/01/10 02:11:52;;;;;;;;;;;2.50;81.60;;;;;;5112854;27;20399;-74
2021/01/10 02:14:19;;;;;;;;;;;2.40;81.60;;;;;;5072714;28;19912;-74
2021/01/10 02:16:45;;;;;;;;;;;2.50;81.60;;;;;;5060217;28;20262;-75
2021/01/10 02:19:20;;;;;;;;;;;2.40;81.50;;;;;;5102004;28;19952;-74
2021/01/10 02:21:46;;;;;;;;;;;2.40;81.50;;;;;;5065099;28;19923;-74
2021/01/10 02:24:12;;;;;;;;;;;2.40;81.60;;;;;;5105935;27;20008;-74
2021/01/10 02:26:38;;;;;;;;;;;2.40;81.60;;;;;;5074479;28;20391;-76
2021/01/10 02:29:04;;;;;;;;;;;2.40;81.50;;;;;;5077875;28;20007;-75
2021/01/10 02:31:31;;;;;;;;;;;2.40;81.50;;;;;;5070932;28;19916;-74
2021/01/10 02:33:57;;;;;;;;;;;2.40;81.50;;;;;;5075204;28;19955;-74
2021/01/10 02:36:32;;;;;;;;;;;2.40;81.50;;;;;;5073801;28;19955;-77
2021/01/10 02:39:02;;;;;;;;;;;2.40;81.50;;;;;;5086220;28;19958;-74
2021/01/10 02:41:27;;;;;;;;;;;2.30;81.40;;;;;;5054763;28;20297;-74
2021/01/10 02:44:15;;;;;;;;;;;2.30;81.40;;;;;;5078958;28;19966;-74
2021/01/10 02:46:43;;;;;;;;;;;2.30;81.60;;;;;;5055766;28;19917;-74
2021/01/10 02:49:09;;;;;;;;;;;2.30;81.40;;;;;;5096570;28;19913;-74
2021/01/10 02:51:35;;;;;;;;;;;2.30;81.40;;;;;;5101132;27;20376;-74
2021/01/10 02:54:01;;;;;;;;;;;2.30;81.40;;;;;;5094725;28;19954;-74
2021/01/10 02:56:29;;;;;;;;;;;2.30;81.40;;;;;;5075474;28;19920;-74
2021/01/10 02:58:56;;;;;;;;;;;2.30;81.40;;;;;;5080094;28;19921;-75
2021/01/10 03:01:23;;;;;;;;;;;2.30;81.40;;;;;;5082953;28;20270;-74
2021/01/10 03:03:49;;;;;;;;;;;2.30;81.40;;;;;;5076696;28;19962;-74
2021/01/10 03:06:15;;;;;;;;;;;2.20;81.40;;;;;;5072455;28;20360;-75
2021/01/10 03:08:41;;;;;;;;;;;2.30;81.40;;;;;;5103696;28;20000;-75
2021/01/10 03:11:07;;;;;;;;;;;2.20;81.40;;;;;;5103817;28;19984;-75
2021/01/10 03:13:33;;;;;;;;;;;2.30;81.40;;;;;;5063411;28;19912;-74
2021/01/10 03:15:59;;;;;;;;;;;2.20;81.40;;;;;;5070941;28;19917;-75
2021/01/10 03:18:25;;;;;;;;;;;2.20;81.40;;;;;;5067574;28;19934;-74
2021/01/10 03:20:51;;;;;;;;;;;2.20;81.40;;;;;;5104991;28;20323;-74
2021/01/10 03:23:17;;;;;;;;;;;2.20;81.40;;;;;;5073376;28;19912;-74
2021/01/10 03:25:43;;;;;;;;;;;2.20;81.40;;;;;;5071928;28;19962;-74
2021/01/10 03:28:09;;;;;;;;;;;2.20;81.40;;;;;;5070126;28;19978;-74
2021/01/10 03:30:35;;;;;;;;;;;2.20;81.40;;;;;;5080073;28;19916;-75
2021/01/10 03:33:01;;;;;;;;;;;2.20;81.40;;;;;;5081480;28;19947;-75
2021/01/10 03:35:27;;;;;;;;;;;2.10;81.30;;;;;;5096145;28;19912;-74
2021/01/10 03:37:53;;;;;;;;;;;2.20;81.40;;;;;;5080972;28;19912;-75
2021/01/10 03:40:19;;;;;;;;;;;2.10;81.30;;;;;;5075202;28;19923;-74
2021/01/10 03:42:44;;;;;;;;;;;2.10;81.30;;;;;;5098584;28;20381;-74
2021/01/10 03:45:11;;;;;;;;;;;2.10;81.30;;;;;;5074897;28;19990;-74
2021/01/10 03:47:37;;;;;;;;;;;2.10;81.30;;;;;;5054472;28;20357;-74
2021/01/10 03:50:03;;;;;;;;;;;2.10;81.30;;;;;;5087127;28;19917;-74
2021/01/10 03:52:29;;;;;;;;;;;2.10;81.30;;;;;;5079480;28;19947;-75
2021/01/10 03:54:54;;;;;;;;;;;2.10;81.30;;;;;;5097542;28;19948;-77
2021/01/10 03:57:20;;;;;;;;;;;2.10;81.30;;;;;;5069905;28;20018;-75
2021/01/10 03:59:46;;;;;;;;;;;2.10;81.30;;;;;;5081059;28;19955;-74
2021/01/10 04:02:11;;;;;;;;;;;2.00;81.20;;;;;;5081297;28;19967;-75
2021/01/10 04:04:37;;;;;;;;;;;2.10;81.30;;;;;;5072575;28;19919;-75
2021/01/10 04:07:04;;;;;;;;;;;2.10;81.30;;;;;;5093169;28;19958;-74
2021/01/10 04:09:30;;;;;;;;;;;2.10;81.90;;;;;;5108011;27;19982;-75
2021/01/10 04:11:55;;;;;;;;;;;2.00;81.20;;;;;;5085616;28;19921;-75
2021/01/10 04:14:21;;;;;;;;;;;2.10;81.20;;;;;;5093129;28;19912;-75
2021/01/10 04:16:50;;;;;;;;;;;2.00;81.20;;;;;;5083389;28;20377;-75
2021/01/10 04:19:16;;;;;;;;;;;2.00;81.20;;;;;;5077996;28;20298;-77
2021/01/10 04:21:41;;;;;;;;;;;2.00;81.20;;;;;;5074074;28;19924;-76
2021/01/10 04:24:07;;;;;;;;;;;2.10;81.20;;;;;;5102392;27;19916;-74
2021/01/10 04:26:36;;;;;;;;;;;2.10;81.20;;;;;;5079960;28;19924;-74
2021/01/10 04:29:02;;;;;;;;;;;2.10;81.20;;;;;;5086656;28;19912;-75
2021/01/10 04:31:27;;;;;;;;;;;2.00;81.10;;;;;;5063894;28;19916;-75
2021/01/10 04:33:53;;;;;;;;;;;2.10;81.20;;;;;;5069352;28;20007;-74
2021/01/10 04:36:19;;;;;;;;;;;2.00;81.10;;;;;;5079660;28;19924;-77
2021/01/10 04:38:44;;;;;;;;;;;2.00;81.10;;;;;;5111771;27;19920;-74
2021/01/10 04:41:10;;;;;;;;;;;2.00;81.10;;;;;;5080731;28;19930;-74
2021/01/10 04:43:36;;;;;;;;;;;2.00;81.10;;;;;;5068145;28;19916;-74
2021/01/10 04:46:02;;;;;;;;;;;2.00;81.10;;;;;;5090737;28;19916;-74
2021/01/10 04:48:28;;;;;;;;;;;2.00;81.10;;;;;;5059964;28;20326;-74
2021/01/10 04:50:54;;;;;;;;;;;2.00;81.00;;;;;;5078284;28;19920;-74
2021/01/10 04:53:20;;;;;;;;;;;2.00;81.10;;;;;;5096658;28;19925;-74
2021/01/10 04:55:46;;;;;;;;;;;2.00;81.10;;;;;;5058032;28;20423;-74
2021/01/10 04:58:12;;;;;;;;;;;2.00;81.10;;;;;;5080715;28;20326;-75
2021/01/10 05:00:37;;;;;;;;;;;2.00;81.10;;;;;;5068247;28;19924;-75
2021/01/10 05:03:18;;;;;;;;;;;2.00;81.10;;;;;;5078545;28;19958;-74
2021/01/10 05:05:43;;;;;;;;;;;2.00;81.10;;;;;;5077094;28;19912;-74
2021/01/10 05:08:10;;;;;;;;;;;2.00;81.10;;;;;;5064116;28;19912;-74
2021/01/10 05:10:36;;;;;;;;;;;2.00;81.10;;;;;;5082765;28;19971;-74
2021/01/10 05:13:02;;;;;;;;;;;2.00;81.10;;;;;;5092340;28;19920;-74
2021/01/10 05:15:27;;;;;;;;;;;2.00;81.10;;;;;;5074049;28;20312;-75
2021/01/10 05:17:57;;;;;;;;;;;2.00;81.10;;;;;;5066711;28;19917;-74
2021/01/10 05:20:26;;;;;;;;;;;2.00;81.10;;;;;;5080959;28;20015;-74
2021/01/10 05:22:52;;;;;;;;;;;1.90;81.00;;;;;;5070782;28;20258;-75
2021/01/10 05:25:18;;;;;;;;;;;1.90;81.00;;;;;;5097379;27;19954;-74
2021/01/10 05:27:48;;;;;;;;;;;1.90;81.00;;;;;;5076455;28;19917;-74
2021/01/10 05:30:14;;;;;;;;;;;1.90;81.00;;;;;;5058498;28;19935;-74
2021/01/10 05:32:40;;;;;;;;;;;1.90;81.00;;;;;;5061544;28;20431;-74
2021/01/10 05:35:06;;;;;;;;;;;1.90;81.00;;;;;;5068192;28;20007;-74
2021/01/10 05:37:31;;;;;;;;;;;1.90;81.10;;;;;;5074883;28;20287;-74
2021/01/10 05:39:57;;;;;;;;;;;1.90;81.10;;;;;;5072402;28;20288;-74
2021/01/10 05:42:28;;;;;;;;;;;1.90;81.00;;;;;;5071851;28;20396;-74
2021/01/10 05:44:53;;;;;;;;;;;1.90;81.10;;;;;;5098802;28;19912;-75
2021/01/10 05:47:19;;;;;;;;;;;1.90;81.00;;;;;;5091069;27;20376;-74
2021/01/10 05:49:54;;;;;;;;;;;1.90;81.00;;;;;;5073140;28;19913;-74
2021/01/10 05:52:21;;;;;;;;;;;1.90;81.00;;;;;;5063026;28;19943;-75
2021/01/10 05:54:47;;;;;;;;;;;1.90;81.10;;;;;;5074735;28;19912;-76
2021/01/10 05:57:14;;;;;;;;;;;1.90;81.10;;;;;;5094058;27;19942;-74
2021/01/10 05:59:50;;;;;;;;;;;1.80;81.00;;;;;;5080523;28;19920;-75
2021/01/10 06:02:32;;;;;;;;;;;1.80;81.00;;;;;;5075650;28;19913;-74
2021/01/10 06:05:07;;;;;;;;;;;1.80;81.00;;;;;;5062435;28;20019;-74
2021/01/10 06:07:33;;;;;;;;;;;1.80;81.00;;;;;;5078592;28;19917;-74
2021/01/10 06:09:58;;;;;;;;;;;1.80;81.00;;;;;;5068337;28;19935;-75
2021/01/10 06:12:24;;;;;;;;;;;1.80;81.00;;;;;;5074257;28;21341;-74
2021/01/10 06:15:08;;;;;;;;;;;1.80;81.00;;;;;;5067785;28;19921;-74
2021/01/10 06:17:40;;;;;;;;;;;1.80;81.10;;;;;;5100381;27;19913;-78
2021/01/10 06:20:10;;;;;;;;;;;1.80;81.00;;;;;;5054026;28;19921;-75
2021/01/10 06:22:37;;;;;;;;;;;1.80;81.00;;;;;;5069945;28;19962;-76
2021/01/10 06:25:04;;;;;;;;;;;1.80;81.00;;;;;;5068076;28;19919;-74
2021/01/10 06:27:30;;;;;;;;;;;1.80;81.00;;;;;;5098963;27;19917;-74
2021/01/10 06:29:59;;;;;;;;;;;1.80;81.00;;;;;;5060168;28;19916;-74
2021/01/10 06:32:25;;;;;;;;;;;1.80;81.00;;;;;;5070125;28;19920;-74
2021/01/10 06:34:51;;;;;;;;;;;1.80;81.00;;;;;;5102555;27;20523;-74
2021/01/10 06:37:18;;;;;;;;;;;1.80;81.00;;;;;;5088330;28;19917;-74
2021/01/10 06:39:45;;;;;;;;;;;1.80;81.00;;;;;;5072467;28;19951;-74
2021/01/10 06:42:12;;;;;;;;;;;1.80;81.00;;;;;;5102791;28;20305;-74
2021/01/10 06:44:42;;;;;;;;;;;1.80;80.90;;;;;;5089916;28;19912;-74
2021/01/10 06:47:15;;;;;;;;;;;1.80;81.00;;;;;;5070725;28;19978;-78
2021/01/10 06:49:40;;;;;;;;;;;1.80;81.00;;;;;;5094049;28;19962;-74
2021/01/10 06:52:08;;;;;;;;;;;1.80;81.00;;;;;;5072421;28;20289;-74
2021/01/10 06:54:41;;;;;;;;;;;1.80;80.90;;;;;;5065796;28;19913;-74
2021/01/10 06:57:08;;;;;;;;;;;1.80;80.90;;;;;;5075979;28;20015;-74
2021/01/10 06:59:53;;;;;;;;;;;1.80;80.90;;;;;;5075801;28;19956;-74
2021/01/10 07:02:19;;;;;;;;;;;1.80;80.90;;;;;;5072414;28;19912;-74
2021/01/10 07:04:56;;;;;;;;;;;1.80;80.90;;;;;;5092573;28;19916;-75
2021/01/10 07:07:38;;;;;;;;;;;1.80;80.90;;;;;;5075043;28;19912;-74
2021/01/10 07:10:05;;;;;;;;;;;1.80;80.90;;;;;;5060470;28;20021;-74
2021/01/10 07:12:31;;;;;;;;;;;1.80;80.90;;;;;;5070061;28;19912;-74
2021/01/10 07:15:21;;;;;;;;;;;1.90;80.90;;;;;;5080656;28;20276;-74
2021/01/10 07:18:06;;;;;;;;;;;1.80;80.90;;;;;;5067955;28;19920;-74
2021/01/10 07:20:36;;;;;;;;;;;1.90;80.90;;;;;;5089075;28;20099;-74
2021/01/10 07:23:21;;;;;;;;;;;1.90;80.90;;;;;;5090103;28;19923;-74
2021/01/10 07:25:46;;;;;;;;;;;1.90;80.90;;;;;;5081382;28;19913;-75
2021/01/10 07:28:32;;;;;;;;;;;1.90;80.80;;;;;;5078105;28;19935;-79
2021/01/10 07:31:04;;;;;;;;;;;1.90;80.90;;;;;;5103263;28;19974;-74
2021/01/10 07:33:30;;;;;;;;;;;1.90;80.80;;;;;;5062780;28;19912;-74
2021/01/10 07:35:58;;;;;;;;;;;1.90;80.90;;;;;;5072219;28;19913;-74
2021/01/10 07:38:25;;;;;;;;;;;1.90;80.80;;;;;;5076949;28;19916;-74
2021/01/10 07:40:52;;;;;;;;;;;1.90;80.80;;;;;;5074964;28;19912;-76
2021/01/10 07:43:17;;;;;;;;;;;1.90;80.80;;;;;;5091284;28;19921;-74
2021/01/10 07:45:43;;;;;;;;;;;1.90;80.80;;;;;;5105322;27;20268;-75
2021/01/10 07:48:24;;;;;;;;;;;1.90;80.80;;;;;;5083474;28;19939;-74
2021/01/10 07:50:50;;;;;;;;;;;2.00;80.90;;;;;;5086354;28;19912;-77
2021/01/10 07:53:15;;;;;;;;;;;2.00;80.80;;;;;;5079937;28;19962;-78
2021/01/10 07:55:41;;;;;;;;;;;2.00;80.80;;;;;;5074386;28;19917;-74
2021/01/10 07:58:10;;;;;;;;;;;2.00;80.80;;;;;;5074630;28;19916;-75
2021/01/10 08:00:48;;;;;;;;;;;2.00;80.80;;;;;;5073815;28;20698;-77
2021/01/10 08:03:19;;;;;;;;;;;2.00;80.80;;;;;;5091388;28;19912;-76
2021/01/10 08:06:04;;;;;;;;;;;2.00;80.80;;;;;;5085251;28;19913;-76
2021/01/10 08:08:38;;;;;;;;;;;2.00;80.80;;;;;;5066391;28;19938;-76
2021/01/10 08:11:03;;;;;;;;;;;2.00;80.80;;;;;;5076291;28;19912;-78
2021/01/10 08:13:39;;;;;;;;;;;2.00;80.70;;;;;;5114419;27;19913;-75
2021/01/10 08:16:05;;;;;;;;;;;2.00;80.80;;;;;;5085047;28;19916;-76
2021/01/10 08:18:35;;;;;;;;;;;2.00;80.70;;;;;;5126266;27;19935;-75
2021/01/10 08:21:01;;;;;;;;;;;2.00;80.80;;;;;;5077010;28;19920;-75
2021/01/10 08:23:27;;;;;;;;;;;2.10;80.80;;;;;;5066629;28;19966;-75
2021/01/10 08:26:02;;;;;;;;;;;2.10;80.80;;;;;;5073544;28;19920;-76
2021/01/10 08:28:29;;;;;;;;;;;2.10;80.80;;;;;;5078719;28;19913;-76
2021/01/10 08:30:59;;;;;;;;;;;2.10;80.80;;;;;;5078071;28;20007;-76
2021/01/10 08:33:25;;;;;;;;;;;2.10;80.80;;;;;;5073778;28;20440;-76
2021/01/10 08:35:51;;;;;;;;;;;2.10;80.70;;;;;;5116077;27;20006;-76
2021/01/10 08:38:16;;;;;;;;;;;2.10;80.70;;;;;;5065133;28;19922;-76
2021/01/10 08:40:42;;;;;;;;;;;2.10;80.70;;;;;;5083235;28;20028;-76
2021/01/10 08:43:07;;;;;;;;;;;2.10;80.70;;;;;;5083580;28;20013;-75
2021/01/10 08:45:34;;;;;;;;;;;2.20;80.70;;;;;;5074399;28;20336;-75
2021/01/10 08:48:03;;;;;;;;;;;2.20;80.70;;;;;;5073173;28;19995;-75
2021/01/10 08:50:39;;;;;;;;;;;2.20;80.70;;;;;;5089667;28;19998;-76
2021/01/10 08:53:04;;;;;;;;;;;2.20;80.70;;;;;;5079627;28;19912;-74
2021/01/10 08:55:33;;;;;;;;;;;2.20;80.70;;;;;;5077385;28;19951;-74
2021/01/10 08:57:59;;;;;;;;;;;2.20;80.70;;;;;;5097877;28;20357;-74
2021/01/10 09:00:25;;;;;;;;;;;2.20;80.70;;;;;;5083705;28;19931;-75
2021/01/10 09:02:50;;;;;;;;;;;2.20;80.70;;;;;;5072262;28;20395;-76
2021/01/10 09:05:23;;;;;;;;;;;2.20;80.70;;;;;;5064036;28;20435;-75
2021/01/10 09:07:51;;;;;;;;;;;2.20;80.70;;;;;;5072489;28;19935;-76
2021/01/10 09:10:18;;;;;;;;;;;2.30;80.70;;;;;;5086491;28;19914;-75
2021/01/10 09:12:48;;;;;;;;;;;2.30;80.70;;;;;;5074882;28;20322;-74
2021/01/10 09:15:18;;;;;;;;;;;2.30;80.70;;;;;;5076583;28;20006;-74
2021/01/10 09:17:50;;;;;;;;;;;2.30;80.70;;;;;;5069171;28;19924;-75
2021/01/10 09:20:21;;;;;;;;;;;2.30;80.60;;;;;;5079649;28;20047;-75
2021/01/10 09:22:46;;;;;;;;;;;2.30;80.60;;;;;;5067085;28;19921;-78
2021/01/10 09:25:13;;;;;;;;;;;2.30;80.60;;;;;;5035640;28;20021;-80
2021/01/10 09:27:39;;;;;;;;;;;2.40;80.70;;;;;;5073853;28;19919;-74
2021/01/10 09:30:05;;;;;;;;;;;2.40;80.70;;;;;;5087504;28;19913;-74
2021/01/10 09:32:31;;;;;;;;;;;2.40;80.60;;;;;;5072059;28;19923;-75
2021/01/10 09:34:57;;;;;;;;;;;2.40;80.70;;;;;;5042191;28;20366;-78
2021/01/10 09:37:30;;;;;;;;;;;2.40;80.60;;;;;;5077330;28;19916;-76
2021/01/10 09:40:09;;;;;;;;;;;2.40;80.70;;;;;;5076047;28;19923;-74
2021/01/10 09:42:46;;;;;;;;;;;2.40;80.70;;;;;;5080884;28;19920;-74
2021/01/10 09:45:12;;;;;;;;;;;2.40;80.60;;;;;;5085452;28;19979;-76
2021/01/10 09:47:38;;;;;;;;;;;2.50;80.70;;;;;;5081126;28;20479;-75
2021/01/10 09:50:10;;;;;;;;;;;2.50;80.70;;;;;;5104921;27;19923;-76
2021/01/10 09:52:49;;;;;;;;;;;2.50;80.70;;;;;;5076994;28;19920;-76
2021/01/10 09:55:15;;;;;;;;;;;2.50;80.70;;;;;;5098494;28;19917;-76
2021/01/10 09:57:41;;;;;;;;;;;2.50;80.70;;;;;;5081012;28;19955;-76
2021/01/10 10:00:13;;;;;;;;;;;2.50;80.70;;;;;;5066421;28;20013;-76
2021/01/10 10:02:39;;;;;;;;;;;2.50;80.70;;;;;;5060938;28;19923;-77
2021/01/10 10:05:08;;;;;;;;;;;2.50;80.70;;;;;;5076141;28;19912;-76
2021/01/10 10:07:34;;;;;;;;;;;2.60;80.80;;;;;;5073316;28;19912;-75
2021/01/10 10:10:00;;;;;;;;;;;2.50;80.70;;;;;;5060027;28;19917;-75
2021/01/10 10:12:26;;;;;;;;;;;2.60;80.70;;;;;;5058164;28;19916;-77
2021/01/10 10:14:59;;;;;;;;;;;2.60;80.70;;;;;;5067327;28;19935;-74
2021/01/10 10:17:27;;;;;;;;;;;2.60;80.70;;;;;;5068032;28;19917;-76
2021/01/10 10:19:53;;;;;;;;;;;2.60;80.70;;;;;;5072918;28;19913;-74
2021/01/10 10:22:19;;;;;;;;;;;2.60;80.70;;;;;;5068162;28;19916;-77
2021/01/10 10:24:45;;;;;;;;;;;2.60;80.70;;;;;;5087537;28;19917;-74
2021/01/10 10:27:10;;;;;;;;;;;2.70;80.70;;;;;;5072932;28;19971;-75
2021/01/10 10:29:36;;;;;;;;;;;2.70;80.70;;;;;;5092267;28;19916;-76
2021/01/10 10:32:01;;;;;;;;;;;2.70;80.70;;;;;;5072158;28;19924;-77
2021/01/10 10:34:27;;;;;;;;;;;2.70;80.70;;;;;;5090699;28;19916;-76
2021/01/10 10:36:57;;;;;;;;;;;2.80;80.70;;;;;;5101355;28;20427;-76
2021/01/10 10:39:22;;;;;;;;;;;2.80;80.70;;;;;;5058934;28;19916;-76
2021/01/10 10:41:48;;;;;;;;;;;2.80;80.70;;;;;;5064579;28;19969;-74
2021/01/10 10:44:13;;;;;;;;;;;2.80;80.70;;;;;;5081836;28;19916;-76
2021/01/10 10:46:41;;;;;;;;;;;2.80;80.80;;;;;;5077883;28;19909;-77
2021/01/10 10:49:06;;;;;;;;;;;2.80;80.80;;;;;;5082045;28;19917;-75
2021/01/10 10:51:32;;;;;;;;;;;2.80;80.70;;;;;;5096149;28;19953;-75
2021/01/10 10:53:58;;;;;;;;;;;2.90;80.80;;;;;;5110869;27;19920;-75
2021/01/10 10:56:32;;;;;;;;;;;2.90;80.80;;;;;;5105418;27;19912;-76
2021/01/10 10:58:58;;;;;;;;;;;2.90;80.80;;;;;;5079425;28;19956;-75
2021/01/10 11:01:24;;;;;;;;;;;2.90;80.80;;;;;;5090079;28;19963;-76
2021/01/10 11:03:49;;;;;;;;;;;2.90;80.80;;;;;;5087467;28;19917;-76
2021/01/10 11:06:15;;;;;;;;;;;2.90;80.80;;;;;;5073785;28;19979;-75
2021/01/10 11:08:40;;;;;;;;;;;2.90;80.80;;;;;;5038309;28;20019;-75
2021/01/10 11:11:06;;;;;;;;;;;3.00;80.80;;;;;;5083284;28;19917;-75
2021/01/10 11:13:31;;;;;;;;;;;3.00;80.80;;;;;;5101511;28;19948;-75
2021/01/10 11:15:57;;;;;;;;;;;3.00;80.80;;;;;;5077046;28;19995;-75
2021/01/10 11:18:23;;;;;;;;;;;3.00;80.80;;;;;;5068142;28;19966;-75
2021/01/10 11:20:51;;;;;;;;;;;3.00;80.80;;;;;;5067568;28;19921;-75
2021/01/10 11:23:16;;;;;;;;;;;3.00;80.80;;;;;;5082520;28;19939;-75
2021/01/10 11:25:42;;;;;;;;;;;3.10;80.80;;;;;;5094458;28;19912;-75
2021/01/10 11:28:08;;;;;;;;;;;3.10;80.80;;;;;;5058712;28;19917;-75
2021/01/10 11:30:34;;;;;;;;;;;3.10;81.40;;;;;;5080667;28;19917;-75
2021/01/10 11:33:00;;;;;;;;;;;3.10;80.80;;;;;;5068373;28;19923;-75
2021/01/10 11:35:25;;;;;;;;;;;3.20;80.80;;;;;;5051558;28;19920;-75
2021/01/10 11:37:54;;;;;;;;;;;3.10;80.80;;;;;;5063664;28;19920;-75
2021/01/10 11:40:19;;;;;;;;;;;3.20;80.80;;;;;;5090968;28;20340;-75
2021/01/10 11:42:47;;;;;;;;;;;3.20;80.80;;;;;;5061183;28;20126;-76
2021/01/10 11:45:13;;;;;;;;;;;3.20;80.80;;;;;;5069949;28;19909;-76
2021/01/10 11:47:39;;;;;;;;;;;3.30;80.80;;;;;;5051725;28;19924;-79
2021/01/10 11:50:05;;;;;;;;;;;3.30;80.80;;;;;;5058937;28;19917;-75
2021/01/10 11:52:30;;;;;;;;;;;3.30;80.80;;;;;;5076251;28;19964;-76
2021/01/10 11:54:56;;;;;;;;;;;3.30;80.80;;;;;;5060728;28;19924;-76
2021/01/10 11:57:22;;;;;;;;;;;3.30;80.80;;;;;;5069219;28;19916;-75
2021/01/10 11:59:47;;;;;;;;;;;3.40;80.90;;;;;;5102894;28;20372;-76
2021/01/10 12:02:13;;;;;;;;;;;3.40;80.80;;;;;;5057617;28;19931;-75
2021/01/10 12:04:38;;;;;;;;;;;3.40;80.80;;;;;;5080210;28;19916;-75
2021/01/10 12:07:04;;;;;;;;;;;3.40;80.70;;;;;;5065670;28;19942;-76
2021/01/10 12:09:29;;;;;;;;;;;3.40;80.80;;;;;;5062812;28;20281;-76
2021/01/10 12:11:55;;;;;;;;;;;3.50;80.80;;;;;;5068647;28;19962;-75
2021/01/10 12:14:21;;;;;;;;;;;3.50;80.70;;;;;;5076472;28;19959;-75
2021/01/10 12:16:46;;;;;;;;;;;3.50;80.70;;;;;;5050658;28;19916;-76
2021/01/10 12:19:12;;;;;;;;;;;3.60;80.70;;;;;;5074650;28;19917;-75
2021/01/10 12:21:37;;;;;;;;;;;3.60;80.70;;;;;;5065744;28;19920;-76
2021/01/10 12:24:03;;;;;;;;;;;3.60;80.70;;;;;;5075541;28;20353;-75
2021/01/10 12:26:29;;;;;;;;;;;3.60;80.70;;;;;;5074692;28;20008;-76
2021/01/10 12:28:55;;;;;;;;;;;3.70;80.80;;;;;;5111019;27;20113;-77
2021/01/10 12:31:20;;;;;;;;;;;3.70;80.70;;;;;;5071373;28;19923;-75
2021/01/10 12:33:46;;;;;;;;;;;3.70;80.70;;;;;;5103168;27;19955;-75
2021/01/10 12:36:12;;;;;;;;;;;3.70;80.70;;;;;;5061508;28;19919;-75
2021/01/10 12:38:39;;;;;;;;;;;3.80;80.70;;;;;;5060041;28;19960;-75
2021/01/10 12:41:05;;;;;;;;;;;3.80;80.70;;;;;;5053489;28;19920;-79
2021/01/10 12:43:31;;;;;;;;;;;3.80;80.60;;;;;;5098026;28;20403;-76
2021/01/10 12:45:56;;;;;;;;;;;3.90;80.70;;;;;;5070197;28;19919;-76
2021/01/10 12:48:22;;;;;;;;;;;3.90;80.60;;;;;;5104343;28;19917;-75
2021/01/10 12:50:47;;;;;;;;;;;3.90;80.60;;;;;;5079019;28;19916;-78
2021/01/10 12:53:14;;;;;;;;;;;4.00;80.70;;;;;;5070492;28;20644;-76
2021/01/10 12:55:39;;;;;;;;;;;4.00;80.60;;;;;;5060844;28;20369;-76
2021/01/10 12:58:05;;;;;;;;;;;4.00;80.60;;;;;;5056330;28;19917;-79
2021/01/10 13:00:31;;;;;;;;;;;4.00;80.60;;;;;;5095895;28;20416;-76
2021/01/10 13:02:56;;;;;;;;;;;4.10;80.60;;;;;;5089860;28;19926;-76
2021/01/10 13:05:22;;;;;;;;;;;4.10;80.60;;;;;;5073788;28;19927;-75
2021/01/10 13:07:48;;;;;;;;;;;4.20;80.60;;;;;;5110551;27;19917;-76
2021/01/10 13:10:14;;;;;;;;;;;4.20;80.40;;;;;;5077322;28;19966;-77
2021/01/10 13:12:40;;;;;;;;;;;4.30;80.40;;;;;;5077692;28;19920;-77
2021/01/10 13:15:06;;;;;;;;;;;4.30;80.30;;;;;;5061558;28;19924;-77
2021/01/10 13:17:31;;;;;;;;;;;4.30;80.30;;;;;;5066809;28;19909;-77
2021/01/10 13:19:57;;;;;;;;;;;4.30;80.20;;;;;;5101666;28;19929;-76
2021/01/10 13:22:26;;;;;;;;;;;4.40;80.20;;;;;;5106600;28;20416;-76
2021/01/10 13:24:52;;;;;;;;;;;4.40;80.20;;;;;;5056080;28;19962;-76
2021/01/10 13:27:18;;;;;;;;;;;4.40;80.20;;;;;;5074551;28;20261;-76
2021/01/10 13:29:44;;;;;;;;;;;4.40;80.20;;;;;;5093731;28;19917;-76
2021/01/10 13:32:10;;;;;;;;;;;4.50;80.30;;;;;;5060619;28;19916;-76
2021/01/10 13:34:35;;;;;;;;;;;4.50;80.30;;;;;;5078889;28;19935;-75
2021/01/10 13:37:01;;;;;;;;;;;4.50;80.40;;;;;;5069595;28;19999;-76
2021/01/10 13:39:27;;;;;;;;;;;4.50;80.40;;;;;;5079464;28;20261;-76
2021/01/10 13:41:53;;;;;;;;;;;4.50;80.40;;;;;;5074667;28;19919;-76
2021/01/10 13:44:18;;;;;;;;;;;4.50;80.40;;;;;;5087587;28;19917;-76
2021/01/10 13:46:44;;;;;;;;;;;4.50;80.40;;;;;;5105110;28;19974;-76
2021/01/10 13:49:09;;;;;;;;;;;4.60;80.50;;;;;;5089404;28;19964;-76
2021/01/10 13:51:35;;;;;;;;;;;4.60;80.50;;;;;;5071173;28;19908;-77
2021/01/10 13:54:01;;;;;;;;;;;4.70;80.50;;;;;;5070171;28;19921;-76
2021/01/10 13:56:30;;;;;;;;;;;4.70;80.50;;;;;;5080510;28;19923;-76
2021/01/10 13:58:56;;;;;;;;;;;4.70;80.50;;;;;;5057803;28;20011;-78
2021/01/10 14:01:32;;;;;;;;;;;4.70;80.50;;;;;;5046234;28;20020;-76
2021/01/10 14:03:58;;;;;;;;;;;4.70;80.50;;;;;;5098085;27;19917;-76
2021/01/10 14:06:24;;;;;;;;;;;4.80;80.50;;;;;;5063212;28;19923;-76
2021/01/10 14:08:52;;;;;;;;;;;4.80;80.50;;;;;;5080535;28;19952;-76
2021/01/10 14:11:18;;;;;;;;;;;4.80;80.50;;;;;;5091728;28;20010;-76
2021/01/10 14:13:50;;;;;;;;;;;4.80;80.50;;;;;;5095501;28;20355;-77
2021/01/10 14:16:19;;;;;;;;;;;4.80;80.50;;;;;;5067130;28;19913;-77
2021/01/10 14:18:46;;;;;;;;;;;4.90;80.60;;;;;;5080486;28;19912;-79
2021/01/10 14:21:22;;;;;;;;;;;4.90;80.50;;;;;;5052922;28;19924;-76
2021/01/10 14:23:48;;;;;;;;;;;5.00;80.60;;;;;;5090883;28;19917;-75
2021/01/10 14:26:13;;;;;;;;;;;5.00;80.60;;;;;;5079918;28;19961;-76
2021/01/10 14:28:39;;;;;;;;;;;5.00;80.50;;;;;;5068921;28;19916;-75
2021/01/10 14:31:04;;;;;;;;;;;5.00;80.50;;;;;;5102816;28;19916;-76